Time;durP1;ratioP1;P1;durP2;ratioP2;P2;SDS_P1;SDS_P2;PMS_P1;PMS_P2;Temp;Humidity;BMP_temperature;BMP_pressure;BME280_temperature;BME280_humidity;BME280_pressure;Samples;Min_cycle;Max_cycle;Signal;HPM_P1;HPM_P2
2023/09/18 00:00:58;;;;;;;39.63;25.85;;;;;;;17.25;100.00;99869.78;5013823;28;20044;-50
2023/09/18 00:03:26;;;;;;;43.03;25.60;;;;;;;17.30;100.00;99872.53;5016053;28;20128;-49
2023/09/18 00:05:52;;;;;;;45.53;24.98;;;;;;;17.29;100.00;99893.13;5015890;28;20025;-50
2023/09/18 00:08:19;;;;;;;38.15;22.02;;;;;;;17.33;100.00;99896.16;5016112;28;20243;-47
2023/09/18 00:10:52;;;;;;;32.45;19.65;;;;;;;17.33;100.00;99896.16;5016766;28;20132;-47
2023/09/18 00:13:17;;;;;;;39.60;22.55;;;;;;;17.29;100.00;99893.13;5018260;28;20418;-48
2023/09/18 00:15:44;;;;;;;30.30;18.73;;;;;;;17.26;100.00;99888.28;5017753;28;20029;-49
2023/09/18 00:18:10;;;;;;;29.88;18.00;;;;;;;17.23;100.00;99891.47;5018985;28;20366;-50
2023/09/18 00:20:35;;;;;;;22.48;14.38;;;;;;;17.19;100.00;99891.16;5015057;28;20030;-48
2023/09/18 00:23:01;;;;;;;18.85;12.70;;;;;;;17.14;100.00;99892.94;5021574;28;20032;-49
2023/09/18 00:25:26;;;;;;;20.55;14.02;;;;;;;17.12;100.00;99887.03;5019930;28;20028;-47
2023/09/18 00:27:51;;;;;;;18.55;11.93;;;;;;;17.09;100.00;99896.38;5015424;28;20037;-52
2023/09/18 00:30:17;;;;;;;17.63;12.02;;;;;;;17.04;100.00;99906.19;5022655;28;20029;-50
2023/09/18 00:32:43;;;;;;;32.30;13.07;;;;;;;16.98;100.00;99905.31;5020023;28;20070;-49
2023/09/18 00:35:08;;;;;;;12.40;8.48;;;;;;;16.92;100.00;99901.78;5019467;28;20120;-51
2023/09/18 00:37:33;;;;;;;16.70;10.95;;;;;;;16.90;100.00;99906.56;5017168;28;20036;-49
2023/09/18 00:39:58;;;;;;;13.90;9.23;;;;;;;16.86;100.00;99921.50;5021064;28;20111;-49
2023/09/18 00:42:24;;;;;;;17.60;10.85;;;;;;;16.86;100.00;99920.72;5011473;28;20030;-52
2023/09/18 00:44:50;;;;;;;12.77;8.70;;;;;;;16.85;100.00;99905.69;5013158;28;20038;-52
2023/09/18 00:47:16;;;;;;;8.95;5.97;;;;;;;16.83;100.00;99899.75;5022497;28;20029;-50
2023/09/18 00:49:47;;;;;;;6.22;4.75;;;;;;;16.77;100.00;99890.81;5027349;28;20025;-49
2023/09/18 00:52:12;;;;;;;4.25;3.85;;;;;;;16.73;100.00;99885.16;5017588;28;20026;-48
2023/09/18 00:54:39;;;;;;;5.35;4.00;;;;;;;16.68;100.00;99873.56;5019415;28;20578;-47
2023/09/18 00:57:05;;;;;;;5.63;4.32;;;;;;;16.61;100.00;99871.06;5020328;28;20029;-48
2023/09/18 00:59:31;;;;;;;4.22;3.67;;;;;;;16.61;100.00;99867.56;5015957;28;20029;-50
2023/09/18 01:01:56;;;;;;;3.88;3.42;;;;;;;16.55;100.00;99864.81;5017408;28;20057;-48
2023/09/18 01:04:22;;;;;;;4.55;2.45;;;;;;;16.55;100.00;99866.69;5017514;28;20041;-49
2023/09/18 01:06:49;;;;;;;6.40;2.55;;;;;;;16.49;100.00;99857.75;5012749;28;20688;-49
2023/09/18 01:09:18;;;;;;;2.63;2.13;;;;;;;16.50;100.00;99826.47;5016663;28;20033;-49
2023/09/18 01:12:02;;;;;;;1.90;1.65;;;;;;;16.46;100.00;99811.97;5016159;28;20025;-50
2023/09/18 01:14:31;;;;;;;1.75;1.65;;;;;;;16.42;100.00;99792.91;5015259;28;20041;-50
2023/09/18 01:16:58;;;;;;;0.80;0.80;;;;;;;16.39;100.00;99776.53;5022904;28;20034;-53
2023/09/18 01:19:45;;;;;;;1.17;0.73;;;;;;;16.34;100.00;99756.69;5019350;28;20060;-48
2023/09/18 01:22:12;;;;;;;5.70;2.40;;;;;;;16.30;100.00;99741.38;5022408;28;20044;-52
2023/09/18 01:24:38;;;;;;;1.73;1.50;;;;;;;16.40;100.00;99722.00;5018136;28;20056;-48
2023/09/18 01:27:05;;;;;;;1.17;1.17;;;;;;;16.38;100.00;99710.72;5018498;28;20490;-47
2023/09/18 01:29:31;;;;;;;1.73;1.08;;;;;;;16.41;100.00;99688.81;5024778;28;20028;-51
2023/09/18 01:31:58;;;;;;;2.05;0.75;;;;;;;16.40;100.00;99696.03;5026099;28;20063;-48
2023/09/18 01:34:28;;;;;;;1.30;1.02;;;;;;;16.32;100.00;99659.81;5015982;28;20033;-48
2023/09/18 01:36:55;;;;;;;1.70;0.60;;;;;;;16.26;100.00;99644.78;5018215;28;20463;-49
2023/09/18 01:39:21;;;;;;;0.55;0.30;;;;;;;16.22;100.00;99629.47;5011288;28;20498;-53
2023/09/18 01:41:47;;;;;;;1.08;1.08;;;;;;;16.18;100.00;99614.97;5020419;28;20083;-50
2023/09/18 01:44:13;;;;;;;0.90;0.90;;;;;;;16.08;100.00;99612.97;5018835;28;20115;-53
2023/09/18 01:46:39;;;;;;;1.58;1.00;;;;;;;16.01;100.00;99609.69;5019750;28;20115;-51
2023/09/18 01:49:05;;;;;;;2.83;0.73;;;;;;;15.98;100.00;99616.34;5026558;28;20032;-48
2023/09/18 01:51:30;;;;;;;0.80;0.80;;;;;;;16.01;100.00;99625.75;5018393;28;20033;-49
2023/09/18 01:53:56;;;;;;;1.77;0.80;;;;;;;16.07;100.00;99620.19;5015143;28;20047;-49
2023/09/18 01:56:23;;;;;;;2.67;0.60;;;;;;;16.07;100.00;99619.38;5021579;28;20025;-49
2023/09/18 01:58:48;;;;;;;0.90;0.75;;;;;;;16.08;100.00;99632.53;5018507;28;20094;-48
2023/09/18 02:01:14;;;;;;;0.63;0.47;;;;;;;16.09;100.00;99634.13;5017531;28;20430;-49
2023/09/18 02:03:41;;;;;;;0.98;0.98;;;;;;;16.20;100.00;99632.38;5021992;28;20053;-47
2023/09/18 02:06:10;;;;;;;0.65;0.55;;;;;;;16.28;100.00;99637.28;5026905;28;20080;-53
2023/09/18 02:08:35;;;;;;;2.63;0.93;;;;;;;16.38;100.00;99617.09;5017926;28;20029;-50
2023/09/18 02:11:00;;;;;;;3.70;0.32;;;;;;;16.44;100.00;99618.75;5023123;28;20030;-49
2023/09/18 02:13:26;;;;;;;0.85;0.60;;;;;;;16.43;100.00;99617.94;5024318;28;20493;-50
2023/09/18 02:15:51;;;;;;;4.70;0.50;;;;;;;16.45;100.00;99625.75;5026190;28;20520;-49
2023/09/18 02:18:17;;;;;;;1.45;0.68;;;;;;;16.50;100.00;99613.22;5018801;28;20667;-51
2023/09/18 02:20:44;;;;;;;0.43;0.40;;;;;;;16.61;100.00;99608.78;5027640;28;20033;-51
2023/09/18 02:23:09;;;;;;;2.38;0.70;;;;;;;16.61;100.00;99594.59;5017255;28;20255;-52
2023/09/18 02:25:34;;;;;;;2.17;0.57;;;;;;;16.62;100.00;99585.50;5020428;28;20117;-49
2023/09/18 02:28:00;;;;;;;0.80;0.55;;;;;;;16.60;100.00;99585.78;5025371;28;20112;-50
2023/09/18 02:30:25;;;;;;;1.60;0.47;;;;;;;16.63;100.00;99585.25;5026718;28;20033;-52
2023/09/18 02:32:50;;;;;;;5.10;0.90;;;;;;;16.62;100.00;99572.91;5015581;28;20255;-49
2023/09/18 02:35:16;;;;;;;2.65;1.13;;;;;;;16.61;100.00;99560.63;5028225;28;20485;-49
2023/09/18 02:37:41;;;;;;;1.20;0.68;;;;;;;16.58;100.00;99551.22;5017668;28;20360;-50
2023/09/18 02:40:07;;;;;;;1.92;0.50;;;;;;;16.62;100.00;99558.75;5022061;28;20042;-50
2023/09/18 02:42:33;;;;;;;1.40;0.85;;;;;;;16.63;100.00;99557.69;5021508;28;20045;-48
2023/09/18 02:44:58;;;;;;;1.33;0.95;;;;;;;16.59;100.00;99552.03;5013197;28;20041;-53
2023/09/18 02:47:23;;;;;;;1.13;0.90;;;;;;;16.60;100.00;99547.47;5025533;28;20463;-54
2023/09/18 02:49:49;;;;;;;0.52;0.52;;;;;;;16.58;100.00;99553.09;5016496;28;20482;-49
2023/09/18 02:52:14;;;;;;;0.60;0.60;;;;;;;16.57;100.00;99562.16;5024939;28;20038;-49
2023/09/18 02:54:39;;;;;;;0.82;0.80;;;;;;;16.55;100.00;99569.66;5023654;28;20204;-51
2023/09/18 02:57:05;;;;;;;1.40;1.17;;;;;;;16.54;100.00;99568.03;5024313;28;20045;-52
2023/09/18 02:59:31;;;;;;;0.80;0.80;;;;;;;16.52;100.00;99567.47;5015187;28;20448;-49
2023/09/18 03:01:56;;;;;;;1.77;1.35;;;;;;;16.53;100.00;99564.53;5020232;28;20391;-50
2023/09/18 03:04:21;;;;;;;5.13;1.90;;;;;;;16.54;100.00;99566.16;5018005;28;20108;-49
2023/09/18 03:06:46;;;;;;;0.95;0.90;;;;;;;16.52;100.00;99562.94;5019134;28;20112;-50
2023/09/18 03:09:12;;;;;;;3.63;1.30;;;;;;;16.55;100.00;99548.25;5020399;28;20536;-48
2023/09/18 03:11:37;;;;;;;2.00;1.25;;;;;;;16.52;100.00;99552.25;5020342;28;20044;-54
2023/09/18 03:14:03;;;;;;;1.50;1.35;;;;;;;16.50;100.00;99558.91;5017708;28;20048;-50
2023/09/18 03:16:31;;;;;;;1.88;1.50;;;;;;;16.48;100.00;99558.34;5013171;28;20112;-48
2023/09/18 03:18:56;;;;;;;1.70;1.58;;;;;;;16.47;100.00;99560.22;5015549;28;20033;-52
2023/09/18 03:21:22;;;;;;;5.05;2.42;;;;;;;16.53;100.00;99563.75;5026603;28;20035;-50
2023/09/18 03:23:47;;;;;;;7.15;2.30;;;;;;;16.57;100.00;99564.84;5019658;28;20045;-49
2023/09/18 03:26:12;;;;;;;2.00;1.80;;;;;;;16.57;100.00;99563.00;5023318;28;20029;-48
2023/09/18 03:28:38;;;;;;;2.00;1.70;;;;;;;16.58;100.00;99566.47;5024777;28;20041;-48
2023/09/18 03:31:04;;;;;;;2.42;1.92;;;;;;;16.61;100.00;99570.50;5024620;28;20426;-49
2023/09/18 03:33:30;;;;;;;2.88;1.60;;;;;;;16.66;100.00;99566.00;5019968;28;20489;-50
2023/09/18 03:35:57;;;;;;;1.65;1.42;;;;;;;16.65;100.00;99572.44;5024715;28;20037;-49
2023/09/18 03:38:24;;;;;;;2.35;1.73;;;;;;;16.70;100.00;99572.50;5018734;28;20463;-53
2023/09/18 03:40:49;;;;;;;1.02;1.02;;;;;;;16.75;100.00;99575.22;5024345;28;20148;-50
2023/09/18 03:43:15;;;;;;;2.33;1.83;;;;;;;16.73;100.00;99568.50;5023494;28;20029;-50
2023/09/18 03:45:40;;;;;;;1.67;1.35;;;;;;;16.62;100.00;99578.28;5027197;28;20379;-47
2023/09/18 03:48:06;;;;;;;2.75;1.58;;;;;;;16.62;100.00;99572.91;5023127;28;20040;-51
2023/09/18 03:50:31;;;;;;;4.13;1.45;;;;;;;16.65;100.00;99571.59;5022387;28;20470;-49
2023/09/18 03:52:57;;;;;;;3.05;1.60;;;;;;;16.63;100.00;99569.19;5022226;28;20057;-49
2023/09/18 03:55:22;;;;;;;1.58;1.23;;;;;;;16.62;100.00;99580.94;5020983;28;20036;-47
2023/09/18 03:57:48;;;;;;;0.93;0.85;;;;;;;16.57;100.00;99570.19;5020518;28;20034;-49
2023/09/18 04:00:14;;;;;;;3.90;1.02;;;;;;;16.52;100.00;99578.16;5025822;28;20053;-50
2023/09/18 04:02:39;;;;;;;1.80;0.77;;;;;;;16.54;100.00;99566.16;5021610;28;20134;-49
2023/09/18 04:05:05;;;;;;;1.52;0.73;;;;;;;16.56;100.00;99565.91;5022751;28;20067;-49
2023/09/18 04:07:31;;;;;;;2.70;0.82;;;;;;;16.49;100.00;99557.28;5021129;28;20040;-50
2023/09/18 04:09:57;;;;;;;2.28;1.02;;;;;;;16.34;100.00;99556.06;5020616;28;20021;-49
2023/09/18 04:12:22;;;;;;;2.60;0.65;;;;;;;16.28;100.00;99558.94;5022818;28;20021;-48
2023/09/18 04:14:47;;;;;;;0.77;0.55;;;;;;;16.32;100.00;99560.84;5027534;28;20482;-50
2023/09/18 04:17:13;;;;;;;0.50;0.47;;;;;;;16.33;100.00;99564.34;5020607;28;20660;-50
2023/09/18 04:19:38;;;;;;;0.90;0.30;;;;;;;16.35;100.00;99567.56;5026636;28;20029;-49
2023/09/18 04:22:04;;;;;;;3.13;0.70;;;;;;;16.39;100.00;99565.19;5023895;28;20044;-49
2023/09/18 04:24:29;;;;;;;1.83;0.40;;;;;;;16.38;100.00;99559.03;5017702;28;20099;-51
2023/09/18 04:26:55;;;;;;;0.40;0.40;;;;;;;16.34;100.00;99553.41;5018295;28;20163;-51
2023/09/18 04:29:20;;;;;;;0.77;0.40;;;;;;;16.39;100.00;99554.50;5024163;28;20034;-52
2023/09/18 04:31:46;;;;;;;1.58;0.22;;;;;;;16.38;100.00;99556.38;5020286;28;20546;-47
2023/09/18 04:34:12;;;;;;;0.15;0.15;;;;;;;16.35;100.00;99552.31;5026907;28;20487;-50
2023/09/18 04:36:37;;;;;;;2.15;1.10;;;;;;;16.33;100.00;99551.75;5027002;28;20087;-49
2023/09/18 04:39:04;;;;;;;0.47;0.47;;;;;;;16.34;100.00;99544.53;5023825;28;20137;-50
2023/09/18 04:41:30;;;;;;;0.22;0.17;;;;;;;16.36;100.00;99543.22;5016454;28;20124;-49
2023/09/18 04:43:56;;;;;;;1.88;0.50;;;;;;;16.37;100.00;99544.06;5016983;28;20043;-53
2023/09/18 04:46:21;;;;;;;0.40;0.38;;;;;;;16.32;100.00;99528.75;5020299;28;20041;-47
2023/09/18 04:48:46;;;;;;;3.90;0.63;;;;;;;16.29;100.00;99537.28;5022131;28;20478;-50
2023/09/18 04:51:12;;;;;;;0.95;0.32;;;;;;;16.25;100.00;99536.16;5020509;28;20101;-51
2023/09/18 04:53:38;;;;;;;1.38;0.35;;;;;;;16.28;100.00;99530.31;5024226;28;20037;-49
2023/09/18 04:56:03;;;;;;;0.95;0.50;;;;;;;16.27;100.00;99528.69;5017948;28;20029;-51
2023/09/18 04:58:29;;;;;;;0.55;0.20;;;;;;;16.26;100.00;99524.44;5013141;28;20433;-52
2023/09/18 05:00:56;;;;;;;1.42;0.10;;;;;;;16.39;100.00;99522.38;5018233;28;20075;-48
2023/09/18 05:03:21;;;;;;;0.75;0.38;;;;;;;16.39;100.00;99522.38;5019889;28;20568;-47
2023/09/18 05:05:47;;;;;;;3.47;0.75;;;;;;;16.35;100.00;99522.09;5020902;28;20075;-50
2023/09/18 05:08:12;;;;;;;2.90;0.52;;;;;;;16.35;100.00;99519.41;5023958;28;20037;-49
2023/09/18 05:10:38;;;;;;;2.33;0.55;;;;;;;16.31;100.00;99520.97;5014060;28;20406;-47
2023/09/18 05:13:03;;;;;;;2.08;0.55;;;;;;;16.33;100.00;99525.00;5022238;28;20379;-49
2023/09/18 05:15:29;;;;;;;2.58;0.70;;;;;;;16.32;100.00;99530.63;5023025;28;20154;-51
2023/09/18 05:17:57;;;;;;;2.50;0.70;;;;;;;16.29;100.00;99529.25;5019406;28;20025;-52
2023/09/18 05:20:24;;;;;;;0.95;0.50;;;;;;;16.28;100.00;99524.97;5020315;28;20080;-49
2023/09/18 05:22:52;;;;;;;0.60;0.60;;;;;;;16.27;100.00;99526.03;5018905;28;20041;-51
2023/09/18 05:25:18;;;;;;;1.05;0.77;;;;;;;16.27;100.00;99520.69;5028162;28;20399;-49
2023/09/18 05:27:44;;;;;;;1.30;1.25;;;;;;;16.24;100.00;99520.38;5014187;28;20052;-49
2023/09/18 05:30:23;;;;;;;1.40;0.73;;;;;;;16.20;100.00;99519.25;5019203;28;20030;-52
2023/09/18 05:32:48;;;;;;;0.77;0.73;;;;;;;16.23;100.00;99524.09;5014894;28;20038;-48
2023/09/18 05:35:14;;;;;;;1.98;1.60;;;;;;;16.24;100.00;99523.88;5020435;28;20029;-49
2023/09/18 05:37:40;;;;;;;7.82;1.83;;;;;;;16.30;100.00;99530.06;5018171;28;20030;-47
2023/09/18 05:40:09;;;;;;;3.30;1.67;;;;;;;16.30;100.00;99527.38;5019463;28;20088;-50
2023/09/18 05:42:44;;;;;;;6.10;1.63;;;;;;;16.35;100.00;99530.91;5026627;28;20705;-49
2023/09/18 05:45:11;;;;;;;3.05;2.63;;;;;;;16.40;100.00;99529.38;5022315;28;20053;-49
2023/09/18 05:47:37;;;;;;;3.33;2.40;;;;;;;16.39;100.00;99531.22;5022183;28;20483;-52
2023/09/18 05:50:07;;;;;;;3.35;1.60;;;;;;;16.46;100.00;99539.84;5021409;28;20041;-50
2023/09/18 05:52:33;;;;;;;2.58;1.85;;;;;;;16.45;100.00;99524.06;5019566;28;20029;-49
2023/09/18 05:54:59;;;;;;;3.50;2.00;;;;;;;16.42;100.00;99535.25;5024454;28;20034;-47
2023/09/18 05:57:24;;;;;;;8.60;2.17;;;;;;;16.39;100.00;99531.22;5019075;28;20479;-48
2023/09/18 05:59:50;;;;;;;4.35;2.25;;;;;;;16.35;100.00;99528.25;5021762;28;20067;-52
2023/09/18 06:02:16;;;;;;;4.85;2.97;;;;;;;16.40;100.00;99529.38;5020540;28;20112;-53
2023/09/18 06:04:42;;;;;;;3.35;2.53;;;;;;;16.45;100.00;99529.41;5020015;28;20037;-48
2023/09/18 06:07:07;;;;;;;5.25;2.30;;;;;;;16.41;100.00;99531.78;5015975;28;20033;-49
2023/09/18 06:09:33;;;;;;;5.18;2.60;;;;;;;16.45;100.00;99534.78;5021677;28;20483;-52
2023/09/18 06:11:59;;;;;;;2.50;2.15;;;;;;;16.52;100.00;99530.84;5017774;28;20386;-49
2023/09/18 06:14:24;;;;;;;3.28;2.10;;;;;;;16.49;100.00;99517.13;5018188;28;20037;-48
2023/09/18 06:16:50;;;;;;;7.28;2.22;;;;;;;16.44;100.00;99523.25;5017290;28;20505;-52
2023/09/18 06:19:17;;;;;;;11.48;4.13;;;;;;;16.43;100.00;99518.97;5018718;28;20198;-52
2023/09/18 06:21:43;;;;;;;5.22;1.83;;;;;;;16.45;100.00;99518.72;5017190;28;20041;-50
2023/09/18 06:24:09;;;;;;;5.15;2.72;;;;;;;16.51;100.00;99509.66;5020364;28;20069;-52
2023/09/18 06:26:35;;;;;;;2.85;1.75;;;;;;;16.56;100.00;99510.53;5020164;28;20434;-50
2023/09/18 06:29:02;;;;;;;5.55;2.38;;;;;;;16.61;100.00;99501.75;5020731;28;20043;-48
2023/09/18 06:31:27;;;;;;;3.42;1.77;;;;;;;16.57;100.00;99501.44;5018295;28;20033;-50
2023/09/18 06:33:53;;;;;;;3.72;1.90;;;;;;;16.56;100.00;99499.00;5015895;28;20451;-50
2023/09/18 06:36:19;;;;;;;5.75;2.30;;;;;;;16.52;100.00;99508.59;5021039;28;20033;-50
2023/09/18 06:38:44;;;;;;;2.78;1.52;;;;;;;16.51;100.00;99512.34;5016117;28;20601;-52
2023/09/18 06:41:09;;;;;;;3.92;1.25;;;;;;;16.49;100.00;99506.44;5020382;28;20439;-50
2023/09/18 06:43:35;;;;;;;5.32;4.18;;;;;;;16.40;100.00;99507.97;5021698;28;20055;-51
2023/09/18 06:46:00;;;;;;;2.97;1.70;;;;;;;16.39;100.00;99514.38;5018008;28;20452;-49
2023/09/18 06:48:25;;;;;;;4.82;2.97;;;;;;;16.39;100.00;99509.00;5013146;28;20515;-48
2023/09/18 06:50:51;;;;;;;1.17;1.08;;;;;;;16.34;100.00;99501.75;5019052;28;20021;-46
2023/09/18 06:53:16;;;;;;;6.03;2.50;;;;;;;16.33;100.00;99500.94;5016190;28;20025;-47
2023/09/18 06:55:41;;;;;;;5.85;2.17;;;;;;;16.32;100.00;99504.69;5020643;28;20405;-48
2023/09/18 06:58:07;;;;;;;1.83;1.70;;;;;;;16.25;100.00;99503.25;5016960;28;20506;-52
2023/09/18 07:00:32;;;;;;;3.50;2.28;;;;;;;16.19;100.00;99499.75;5020765;28;20033;-49
2023/09/18 07:02:57;;;;;;;7.00;2.55;;;;;;;16.20;100.00;99506.69;5022586;28;20576;-53
2023/09/18 07:05:23;;;;;;;2.55;1.55;;;;;;;16.18;100.00;99498.09;5017277;28;20168;-47
2023/09/18 07:07:48;;;;;;;2.35;1.88;;;;;;;16.20;100.00;99487.16;5023590;28;20542;-50
2023/09/18 07:10:14;;;;;;;1.50;1.40;;;;;;;16.27;100.00;99491.25;5026937;28;20040;-50
2023/09/18 07:12:39;;;;;;;1.73;1.60;;;;;;;16.31;100.00;99489.69;5024426;28;20118;-51
2023/09/18 07:15:06;;;;;;;3.20;1.90;;;;;;;16.33;100.00;99492.91;5016779;28;20474;-52
2023/09/18 07:17:32;;;;;;;2.13;1.65;;;;;;;16.43;100.00;99492.22;5031581;28;20045;-52
2023/09/18 07:19:57;;;;;;;7.75;2.47;;;;;;;16.47;100.00;99497.84;5026078;28;20029;-46
2023/09/18 07:22:23;;;;;;;3.97;2.38;;;;;;;16.47;100.00;99495.16;5016940;28;20375;-51
2023/09/18 07:24:48;;;;;;;7.30;2.30;;;;;;;16.50;100.00;99494.69;4993155;28;20516;-46
2023/09/18 07:27:13;;;;;;;2.53;1.40;;;;;;;16.53;100.00;99496.84;5005478;28;20486;-51
2023/09/18 07:29:39;;;;;;;2.17;1.20;;;;;;;16.58;100.00;99492.34;5014294;28;20116;-51
2023/09/18 07:32:04;;;;;;;3.13;2.45;;;;;;;16.67;100.00;99487.31;5012024;28;20056;-48
2023/09/18 07:34:29;;;;;;;5.35;1.80;;;;;;;16.71;100.00;99485.75;5015663;28;20116;-48
2023/09/18 07:36:56;;;;;;;4.40;2.63;;;;;;;16.62;100.00;99475.78;5013996;28;20041;-48
2023/09/18 07:39:22;;;;;;;3.15;2.35;;;;;;;16.68;100.00;99470.22;5017008;28;20041;-48
2023/09/18 07:41:50;;;;;;;3.60;1.90;;;;;;;16.63;100.00;99472.84;5014746;28;20036;-47
2023/09/18 07:44:20;;;;;;;5.18;2.67;;;;;;;16.65;100.00;99468.06;5014915;28;20034;-49
2023/09/18 07:46:45;;;;;;;3.28;2.15;;;;;;;16.60;100.00;99468.03;5015504;28;20556;-48
2023/09/18 07:49:10;;;;;;;1.95;1.85;;;;;;;16.58;100.00;99470.13;5011547;28;20029;-51
2023/09/18 07:51:35;;;;;;;10.07;2.83;;;;;;;16.54;100.00;99477.06;5015443;28;20029;-48
2023/09/18 07:54:01;;;;;;;2.67;1.38;;;;;;;16.58;100.00;99480.84;5006695;28;20119;-48
2023/09/18 07:56:27;;;;;;;10.63;2.20;;;;;;;16.52;100.00;99471.13;5016364;28;20036;-47
2023/09/18 07:58:52;;;;;;;2.53;1.67;;;;;;;16.46;100.00;99475.63;5012846;28;20088;-48
2023/09/18 08:01:18;;;;;;;2.75;2.60;;;;;;;16.66;100.00;99477.69;5015604;28;20037;-53
2023/09/18 08:03:43;;;;;;;8.07;3.60;;;;;;;16.84;100.00;99476.53;5013466;28;20053;-51
2023/09/18 08:06:08;;;;;;;3.65;2.40;;;;;;;17.02;100.00;99463.81;5016136;28;21037;-49
2023/09/18 08:08:34;;;;;;;3.58;1.58;;;;;;;17.16;100.00;99455.03;5012525;28;20033;-53
2023/09/18 08:11:08;;;;;;;3.53;1.25;;;;;;;17.23;100.00;99439.53;5016724;28;20037;-49
2023/09/18 08:13:34;;;;;;;4.57;1.70;;;;;;;17.35;100.00;99434.00;5012426;28;20045;-49
2023/09/18 08:15:59;;;;;;;3.83;1.20;;;;;;;17.58;100.00;99422.03;5006496;28;20033;-47
2023/09/18 08:18:26;;;;;;;2.17;1.88;;;;;;;17.90;100.00;99413.03;5010241;28;20087;-52
2023/09/18 08:20:52;;;;;;;2.50;2.03;;;;;;;18.05;100.00;99410.38;5006097;28;20165;-48
2023/09/18 08:23:17;;;;;;;3.60;0.77;;;;;;;18.34;100.00;99407.16;5004973;28;20224;-51
2023/09/18 08:25:43;;;;;;;1.35;0.70;;;;;;;18.63;100.00;99379.78;5007187;28;20124;-48
2023/09/18 08:28:08;;;;;;;0.82;0.82;;;;;;;18.73;100.00;99369.03;5008196;28;20123;-50
2023/09/18 08:30:34;;;;;;;3.03;0.93;;;;;;;18.76;100.00;99352.38;5023145;28;20471;-52
2023/09/18 08:32:59;;;;;;;4.45;1.48;;;;;;;18.77;100.00;99348.66;5017759;28;20029;-49
2023/09/18 08:35:29;;;;;;;0.63;0.47;;;;;;;18.69;100.00;99341.09;5013892;28;20041;-51
2023/09/18 08:37:54;;;;;;;1.70;0.65;;;;;;;18.64;100.00;99350.00;5014947;28;20095;-51
2023/09/18 08:40:19;;;;;;;3.10;0.85;;;;;;;18.57;100.00;99344.09;5021423;28;20037;-51
2023/09/18 08:42:47;;;;;;;2.13;0.77;;;;;;;18.51;100.00;99345.19;5014311;28;20045;-47
2023/09/18 08:45:23;;;;;;;1.80;0.80;;;;;;;18.48;100.00;99330.44;5013152;28;20052;-50
2023/09/18 08:47:50;;;;;;;2.85;0.80;;;;;;;18.58;100.00;99334.16;5009389;28;20319;-51
2023/09/18 08:50:16;;;;;;;2.42;0.88;;;;;;;18.66;100.00;99330.91;5015593;28;20034;-49
2023/09/18 08:52:42;;;;;;;1.00;0.60;;;;;;;18.94;100.00;99322.25;5017177;28;20040;-51
2023/09/18 08:55:09;;;;;;;5.03;0.82;;;;;;;19.12;100.00;99322.72;5009287;28;20159;-48
2023/09/18 08:57:36;;;;;;;3.03;1.52;;;;;;;19.31;100.00;99317.53;5012045;28;20121;-51
2023/09/18 09:00:06;;;;;;;4.68;0.63;;;;;;;19.43;100.00;99323.38;5007896;28;20041;-50
2023/09/18 09:02:33;;;;;;;3.88;1.70;;;;;;;19.30;100.00;99300.59;5005625;28;20091;-48
2023/09/18 09:04:58;;;;;;;6.93;1.92;;;;;;;19.40;100.00;99287.09;5015611;28;20060;-52
2023/09/18 09:07:26;;;;;;;3.78;0.80;;;;;;;19.20;100.00;99284.53;5015239;28;20037;-49
2023/09/18 09:09:51;;;;;;;4.93;1.27;;;;;;;19.28;100.00;99293.91;5014755;28;20501;-53
2023/09/18 09:12:46;;;;;;;4.78;1.40;;;;;;;19.36;100.00;99286.06;5013186;28;20450;-54
2023/09/18 09:15:11;;;;;;;9.15;1.35;;;;;;;19.26;100.00;99274.56;5011992;28;21214;-51
2023/09/18 09:17:37;;;;;;;10.23;1.35;;;;;;;19.32;100.00;99271.56;5002567;28;20103;-52
2023/09/18 09:20:12;;;;;;;6.43;0.85;;;;;;;19.35;100.00;99267.53;5016870;28;20040;-49
2023/09/18 09:22:40;;;;;;;4.13;0.77;;;;;;;19.32;100.00;99266.19;5036125;28;20579;-54
2023/09/18 09:25:22;;;;;;;3.33;0.60;;;;;;;19.50;100.00;99255.88;5013466;28;20391;-53
2023/09/18 09:27:47;;;;;;;;;;;;;;;19.86;100.00;99258.34;5021748;28;20494;-54
2023/09/18 09:30:23;;;;;;;2.92;0.40;;;;;;;19.83;100.00;99247.03;5017313;28;19956;-50
2023/09/18 09:32:53;;;;;;;5.15;1.40;;;;;;;19.94;100.00;99246.97;5035535;28;20068;-53
2023/09/18 09:35:26;;;;;;;1.52;0.73;;;;;;;19.99;100.00;99238.84;5034093;28;20033;-53
2023/09/18 09:37:55;;;;;;;2.55;0.80;;;;;;;20.02;100.00;99222.13;5018732;28;20034;-53
2023/09/18 09:40:21;;;;;;;2.40;0.70;;;;;;;20.03;100.00;99213.78;5020412;28;20095;-50
2023/09/18 09:42:47;;;;;;;3.80;0.93;;;;;;;20.14;100.00;99209.09;5016039;28;20026;-50
2023/09/18 09:45:17;;;;;;;0.73;0.40;;;;;;;20.08;100.00;99204.84;5011206;28;20040;-55
2023/09/18 09:47:43;;;;;;;4.05;0.60;;;;;;;20.07;100.00;99203.25;5019374;28;20033;-51
2023/09/18 09:50:10;;;;;;;11.35;1.25;;;;;;;19.84;100.00;99196.75;5015279;28;20380;-50
2023/09/18 09:52:42;;;;;;;4.57;0.93;;;;;;;19.60;100.00;99197.47;5018421;28;20086;-51
2023/09/18 09:55:34;;;;;;;;;;;;;;;19.71;100.00;99197.41;5010000;28;20037;-54
2023/09/18 09:57:59;;;;;;;;;;;;;;;19.59;100.00;99203.94;5016883;28;19921;-53
2023/09/18 10:00:33;;;;;;;1.65;0.30;;;;;;;19.36;100.00;99204.63;5017559;28;20031;-55
2023/09/18 10:03:04;;;;;;;3.70;1.15;;;;;;;19.27;100.00;99207.13;5017892;28;20537;-48
2023/09/18 10:05:35;;;;;;;0.77;0.17;;;;;;;19.29;100.00;99202.28;5018308;28;20492;-51
2023/09/18 10:08:06;;;;;;;0.82;0.75;;;;;;;19.37;100.00;99204.34;5012758;28;20597;-51
2023/09/18 10:10:38;;;;;;;1.10;0.50;;;;;;;19.52;100.00;99198.06;5007741;28;20064;-50
2023/09/18 10:13:09;;;;;;;2.83;0.30;;;;;;;19.89;100.00;99196.69;5019054;28;20117;-53
2023/09/18 10:15:38;;;;;;;0.68;0.63;;;;;;;20.32;100.00;99194.13;5017397;28;20347;-54
2023/09/18 10:18:07;;;;;;;1.55;0.68;;;;;;;20.42;100.00;99179.72;5019485;28;20037;-52
2023/09/18 10:20:42;;;;;;;0.63;0.60;;;;;;;20.36;100.00;99176.28;5015886;28;20033;-49
2023/09/18 10:23:19;;;;;;;0.45;0.10;;;;;;;20.23;100.00;99163.53;5020266;28;20056;-50
2023/09/18 10:25:51;;;;;;;1.13;0.20;;;;;;;20.14;100.00;99166.06;5024706;28;20116;-52
2023/09/18 10:28:17;;;;;;;0.57;0.30;;;;;;;19.95;100.00;99162.47;5024192;28;20037;-54
2023/09/18 10:30:44;;;;;;;2.35;0.80;;;;;;;19.74;100.00;99173.44;5027765;28;20026;-51
2023/09/18 10:33:09;;;;;;;1.05;0.30;;;;;;;19.37;100.00;99174.00;5021082;28;20449;-48
2023/09/18 10:35:35;;;;;;;3.03;0.60;;;;;;;19.26;100.00;99183.19;5021714;28;20030;-49
2023/09/18 10:38:02;;;;;;;0.30;0.20;;;;;;;19.08;100.00;99182.00;5019417;28;20035;-49
2023/09/18 10:40:30;;;;;;;0.75;0.20;;;;;;;19.04;100.00;99191.69;5018782;28;20148;-50
2023/09/18 10:42:58;;;;;;;2.72;1.05;;;;;;;19.01;100.00;99190.34;5021993;28;20382;-50
2023/09/18 10:45:24;;;;;;;0.35;0.32;;;;;;;19.02;100.00;99196.53;5020431;28;20029;-48
2023/09/18 10:47:51;;;;;;;0.95;0.22;;;;;;;19.06;100.00;99200.28;5031399;28;20025;-49
2023/09/18 10:50:27;;;;;;;0.98;0.25;;;;;;;19.04;100.00;99208.59;5027787;28;20029;-51
2023/09/18 10:52:53;;;;;;;0.75;0.10;;;;;;;19.33;100.00;99214.06;5025888;28;20061;-52
2023/09/18 10:55:19;;;;;;;1.95;0.30;;;;;;;19.34;100.00;99206.81;5020811;28;20094;-53
2023/09/18 10:57:58;;;;;;;3.90;0.38;;;;;;;19.61;100.00;99200.94;5026179;28;20029;-51
2023/09/18 11:00:31;;;;;;;0.10;0.00;;;;;;;19.94;100.00;99187.78;5021422;28;20054;-52
2023/09/18 11:03:32;;;;;;;0.47;0.10;;;;;;;20.09;100.00;99181.44;5018150;28;20080;-49
2023/09/18 11:06:06;;;;;;;2.08;0.00;;;;;;;19.94;100.00;99179.72;4974272;28;20045;-49
2023/09/18 11:08:44;;;;;;;0.22;0.00;;;;;;;19.75;100.00;99175.06;5023723;28;20545;-51
2023/09/18 11:11:19;;;;;;;1.55;0.00;;;;;;;19.65;100.00;99183.19;5021130;28;20053;-50
2023/09/18 11:13:50;;;;;;;2.00;0.20;;;;;;;19.59;100.00;99192.34;5022827;28;20774;-53
2023/09/18 11:16:27;;;;;;;1.07;0.10;;;;;;;19.73;100.00;99192.56;5014978;28;20360;-50
2023/09/18 11:19:17;;;;;;;3.35;1.13;;;;;;;19.85;100.00;99189.47;5022378;28;20703;-50
2023/09/18 11:21:43;;;;;;;0.38;0.00;;;;;;;19.68;100.00;99196.09;5020583;28;20033;-51
2023/09/18 11:24:20;;;;;;;0.65;0.15;;;;;;;19.62;100.00;99191.81;5022601;28;20434;-52